sensor_id;sensor_type;location;lat;lon;timestamp;temperature;humidity
37560;DHT22;23398;50.928;7.084;2024-01-16T00:01:54;5.70;78.70
37560;DHT22;23398;50.928;7.084;2024-01-16T00:04:20;5.70;78.90
37560;DHT22;23398;50.928;7.084;2024-01-16T00:06:45;5.70;79.20
37560;DHT22;23398;50.928;7.084;2024-01-16T00:09:11;5.80;79.50
37560;DHT22;23398;50.928;7.084;2024-01-16T00:11:40;5.70;79.50
37560;DHT22;23398;50.928;7.084;2024-01-16T00:14:06;5.70;79.60
37560;DHT22;23398;50.928;7.084;2024-01-16T00:16:32;5.70;79.60
37560;DHT22;23398;50.928;7.084;2024-01-16T00:18:58;5.70;79.70
37560;DHT22;23398;50.928;7.084;2024-01-16T00:21:23;5.80;79.70
37560;DHT22;23398;50.928;7.084;2024-01-16T00:23:49;5.80;80.00
37560;DHT22;23398;50.928;7.084;2024-01-16T00:26:22;5.80;80.10
37560;DHT22;23398;50.928;7.084;2024-01-16T00:28:47;5.80;80.00
37560;DHT22;23398;50.928;7.084;2024-01-16T00:31:13;5.80;80.00
37560;DHT22;23398;50.928;7.084;2024-01-16T00:33:39;5.80;80.00
37560;DHT22;23398;50.928;7.084;2024-01-16T00:36:05;5.90;80.10
37560;DHT22;23398;50.928;7.084;2024-01-16T00:38:34;5.80;79.90
37560;DHT22;23398;50.928;7.084;2024-01-16T00:41:00;5.90;79.80
37560;DHT22;23398;50.928;7.084;2024-01-16T00:43:25;5.90;79.90
37560;DHT22;23398;50.928;7.084;2024-01-16T00:45:51;5.90;79.90
37560;DHT22;23398;50.928;7.084;2024-01-16T00:48:16;5.90;79.70
37560;DHT22;23398;50.928;7.084;2024-01-16T00:50:43;5.90;79.50
37560;DHT22;23398;50.928;7.084;2024-01-16T00:53:11;5.90;79.40
37560;DHT22;23398;50.928;7.084;2024-01-16T00:55:37;5.90;79.50
37560;DHT22;23398;50.928;7.084;2024-01-16T00:58:02;5.90;79.60
37560;DHT22;23398;50.928;7.084;2024-01-16T01:00:28;6.00;79.70
37560;DHT22;23398;50.928;7.084;2024-01-16T01:02:56;6.00;79.50
37560;DHT22;23398;50.928;7.084;2024-01-16T01:05:22;5.90;79.20
37560;DHT22;23398;50.928;7.084;2024-01-16T01:07:56;6.00;79.10
37560;DHT22;23398;50.928;7.084;2024-01-16T01:10:22;6.00;79.00
37560;DHT22;23398;50.928;7.084;2024-01-16T01:12:48;6.00;78.80
37560;DHT22;23398;50.928;7.084;2024-01-16T01:15:13;6.00;78.80
37560;DHT22;23398;50.928;7.084;2024-01-16T01:17:39;6.00;78.80
37560;DHT22;23398;50.928;7.084;2024-01-16T01:20:06;5.90;78.60
37560;DHT22;23398;50.928;7.084;2024-01-16T01:22:32;5.90;78.50
37560;DHT22;23398;50.928;7.084;2024-01-16T01:24:57;6.00;78.60
37560;DHT22;23398;50.928;7.084;2024-01-16T01:27:23;5.90;78.60
37560;DHT22;23398;50.928;7.084;2024-01-16T01:29:49;5.90;78.50
37560;DHT22;23398;50.928;7.084;2024-01-16T01:32:14;5.90;78.50
37560;DHT22;23398;50.928;7.084;2024-01-16T01:34:43;5.90;78.40
37560;DHT22;23398;50.928;7.084;2024-01-16T01:37:08;5.90;78.40
37560;DHT22;23398;50.928;7.084;2024-01-16T01:39:34;5.90;78.40
37560;DHT22;23398;50.928;7.084;2024-01-16T01:42:00;5.90;78.50
37560;DHT22;23398;50.928;7.084;2024-01-16T01:44:25;5.90;78.50
37560;DHT22;23398;50.928;7.084;2024-01-16T01:46:54;5.90;78.50
37560;DHT22;23398;50.928;7.084;2024-01-16T01:49:19;5.90;78.20
37560;DHT22;23398;50.928;7.084;2024-01-16T01:51:46;5.90;78.10
37560;DHT22;23398;50.928;7.084;2024-01-16T01:54:12;5.90;78.10
37560;DHT22;23398;50.928;7.084;2024-01-16T01:56:38;5.90;78.00
37560;DHT22;23398;50.928;7.084;2024-01-16T01:59:05;5.90;78.00
37560;DHT22;23398;50.928;7.084;2024-01-16T02:01:32;5.90;78.10
37560;DHT22;23398;50.928;7.084;2024-01-16T02:03:59;5.90;78.10
37560;DHT22;23398;50.928;7.084;2024-01-16T02:06:26;5.90;78.10
37560;DHT22;23398;50.928;7.084;2024-01-16T02:08:52;5.90;78.30
37560;DHT22;23398;50.928;7.084;2024-01-16T02:11:17;5.90;78.30
37560;DHT22;23398;50.928;7.084;2024-01-16T02:13:43;5.90;78.50
37560;DHT22;23398;50.928;7.084;2024-01-16T02:16:22;5.90;78.40
37560;DHT22;23398;50.928;7.084;2024-01-16T02:18:48;5.90;78.30
37560;DHT22;23398;50.928;7.084;2024-01-16T02:21:25;5.90;78.10
37560;DHT22;23398;50.928;7.084;2024-01-16T02:23:53;5.90;78.00
37560;DHT22;23398;50.928;7.084;2024-01-16T02:26:19;5.90;78.00
37560;DHT22;23398;50.928;7.084;2024-01-16T02:28:45;5.90;78.00
37560;DHT22;23398;50.928;7.084;2024-01-16T02:31:10;5.90;78.00
37560;DHT22;23398;50.928;7.084;2024-01-16T02:33:36;5.90;78.00
37560;DHT22;23398;50.928;7.084;2024-01-16T02:36:02;5.90;78.10
37560;DHT22;23398;50.928;7.084;2024-01-16T02:38:27;5.90;79.00
37560;DHT22;23398;50.928;7.084;2024-01-16T02:40:53;5.90;78.10
37560;DHT22;23398;50.928;7.084;2024-01-16T02:43:18;5.90;78.20
37560;DHT22;23398;50.928;7.084;2024-01-16T02:45:44;5.90;78.10
37560;DHT22;23398;50.928;7.084;2024-01-16T02:48:09;5.90;78.10
37560;DHT22;23398;50.928;7.084;2024-01-16T02:50:35;5.90;78.00
37560;DHT22;23398;50.928;7.084;2024-01-16T02:53:01;5.90;78.00
37560;DHT22;23398;50.928;7.084;2024-01-16T02:55:26;5.80;77.80
37560;DHT22;23398;50.928;7.084;2024-01-16T02:57:52;5.90;77.80
37560;DHT22;23398;50.928;7.084;2024-01-16T03:00:17;5.80;77.60
37560;DHT22;23398;50.928;7.084;2024-01-16T03:02:43;5.80;77.50
37560;DHT22;23398;50.928;7.084;2024-01-16T03:05:10;5.80;77.40
37560;DHT22;23398;50.928;7.084;2024-01-16T03:07:36;5.80;77.40
37560;DHT22;23398;50.928;7.084;2024-01-16T03:10:02;5.80;77.30
37560;DHT22;23398;50.928;7.084;2024-01-16T03:12:28;5.80;77.30
37560;DHT22;23398;50.928;7.084;2024-01-16T03:14:53;5.80;77.40
37560;DHT22;23398;50.928;7.084;2024-01-16T03:17:19;5.80;77.50
37560;DHT22;23398;50.928;7.084;2024-01-16T03:19:45;5.70;77.50
37560;DHT22;23398;50.928;7.084;2024-01-16T03:22:10;5.70;77.30
37560;DHT22;23398;50.928;7.084;2024-01-16T03:24:36;5.70;77.20
37560;DHT22;23398;50.928;7.084;2024-01-16T03:27:01;5.70;77.40
37560;DHT22;23398;50.928;7.084;2024-01-16T03:29:27;5.70;77.70
37560;DHT22;23398;50.928;7.084;2024-01-16T03:31:52;5.70;77.90
37560;DHT22;23398;50.928;7.084;2024-01-16T03:34:18;5.70;78.20
37560;DHT22;23398;50.928;7.084;2024-01-16T03:36:44;5.70;78.40
37560;DHT22;23398;50.928;7.084;2024-01-16T03:39:10;5.70;78.50
37560;DHT22;23398;50.928;7.084;2024-01-16T03:41:36;5.70;78.50
37560;DHT22;23398;50.928;7.084;2024-01-16T03:44:02;5.70;78.40
37560;DHT22;23398;50.928;7.084;2024-01-16T03:46:28;5.70;78.70
37560;DHT22;23398;50.928;7.084;2024-01-16T03:48:53;5.70;78.40
37560;DHT22;23398;50.928;7.084;2024-01-16T03:51:19;5.70;78.40
37560;DHT22;23398;50.928;7.084;2024-01-16T03:53:45;5.70;78.40
37560;DHT22;23398;50.928;7.084;2024-01-16T03:56:10;5.70;78.40
37560;DHT22;23398;50.928;7.084;2024-01-16T03:58:36;5.70;78.30
37560;DHT22;23398;50.928;7.084;2024-01-16T04:01:01;5.70;78.20
37560;DHT22;23398;50.928;7.084;2024-01-16T04:03:27;5.70;78.20
37560;DHT22;23398;50.928;7.084;2024-01-16T04:05:52;5.70;78.10
37560;DHT22;23398;50.928;7.084;2024-01-16T04:08:18;5.80;78.10
37560;DHT22;23398;50.928;7.084;2024-01-16T04:10:44;5.70;78.00
37560;DHT22;23398;50.928;7.084;2024-01-16T04:13:09;5.70;77.90
37560;DHT22;23398;50.928;7.084;2024-01-16T04:15:38;5.70;77.80
37560;DHT22;23398;50.928;7.084;2024-01-16T04:18:04;5.80;77.90
37560;DHT22;23398;50.928;7.084;2024-01-16T04:20:29;5.80;77.90
37560;DHT22;23398;50.928;7.084;2024-01-16T04:22:56;5.80;77.90
37560;DHT22;23398;50.928;7.084;2024-01-16T04:25:21;5.80;77.90
37560;DHT22;23398;50.928;7.084;2024-01-16T04:27:47;5.80;77.90
37560;DHT22;23398;50.928;7.084;2024-01-16T04:30:13;5.80;78.00
37560;DHT22;23398;50.928;7.084;2024-01-16T04:32:38;5.80;77.90
37560;DHT22;23398;50.928;7.084;2024-01-16T04:35:04;5.80;77.80
37560;DHT22;23398;50.928;7.084;2024-01-16T04:37:29;5.80;77.60
37560;DHT22;23398;50.928;7.084;2024-01-16T04:39:55;5.80;77.60
37560;DHT22;23398;50.928;7.084;2024-01-16T04:42:21;5.80;77.50
37560;DHT22;23398;50.928;7.084;2024-01-16T04:44:46;5.80;77.50
37560;DHT22;23398;50.928;7.084;2024-01-16T04:47:12;5.80;77.30
37560;DHT22;23398;50.928;7.084;2024-01-16T04:49:37;5.70;77.20
37560;DHT22;23398;50.928;7.084;2024-01-16T04:52:03;5.70;77.20
37560;DHT22;23398;50.928;7.084;2024-01-16T04:54:29;5.70;77.20
37560;DHT22;23398;50.928;7.084;2024-01-16T04:56:54;5.70;77.20
37560;DHT22;23398;50.928;7.084;2024-01-16T04:59:20;5.70;77.10
37560;DHT22;23398;50.928;7.084;2024-01-16T05:01:45;5.70;77.00
37560;DHT22;23398;50.928;7.084;2024-01-16T05:04:11;5.70;76.90
37560;DHT22;23398;50.928;7.084;2024-01-16T05:06:36;5.70;76.90
37560;DHT22;23398;50.928;7.084;2024-01-16T05:09:02;5.60;76.80
37560;DHT22;23398;50.928;7.084;2024-01-16T05:11:28;5.70;76.80
37560;DHT22;23398;50.928;7.084;2024-01-16T05:13:54;5.60;76.80
37560;DHT22;23398;50.928;7.084;2024-01-16T05:16:26;5.60;76.80
37560;DHT22;23398;50.928;7.084;2024-01-16T05:18:53;5.60;76.90
37560;DHT22;23398;50.928;7.084;2024-01-16T05:21:19;5.60;76.90
37560;DHT22;23398;50.928;7.084;2024-01-16T05:23:45;5.60;77.00
37560;DHT22;23398;50.928;7.084;2024-01-16T05:26:10;5.60;77.20
37560;DHT22;23398;50.928;7.084;2024-01-16T05:28:36;5.60;77.30
37560;DHT22;23398;50.928;7.084;2024-01-16T05:31:01;5.60;77.40
37560;DHT22;23398;50.928;7.084;2024-01-16T05:33:27;5.60;77.50
37560;DHT22;23398;50.928;7.084;2024-01-16T05:35:53;5.60;77.60
37560;DHT22;23398;50.928;7.084;2024-01-16T05:38:18;5.60;77.70
37560;DHT22;23398;50.928;7.084;2024-01-16T05:40:44;5.60;77.70
37560;DHT22;23398;50.928;7.084;2024-01-16T05:43:10;5.60;77.80
37560;DHT22;23398;50.928;7.084;2024-01-16T05:45:35;5.60;77.90
37560;DHT22;23398;50.928;7.084;2024-01-16T05:48:01;5.60;78.10
37560;DHT22;23398;50.928;7.084;2024-01-16T05:50:26;5.60;78.10
37560;DHT22;23398;50.928;7.084;2024-01-16T05:52:52;5.50;78.00
37560;DHT22;23398;50.928;7.084;2024-01-16T05:55:17;5.60;78.20
37560;DHT22;23398;50.928;7.084;2024-01-16T05:57:43;5.50;78.00
37560;DHT22;23398;50.928;7.084;2024-01-16T06:00:09;5.60;78.20
37560;DHT22;23398;50.928;7.084;2024-01-16T06:02:35;5.50;78.10
37560;DHT22;23398;50.928;7.084;2024-01-16T06:05:01;5.50;78.00
37560;DHT22;23398;50.928;7.084;2024-01-16T06:07:28;5.50;78.00
37560;DHT22;23398;50.928;7.084;2024-01-16T06:09:53;5.50;78.80
37560;DHT22;23398;50.928;7.084;2024-01-16T06:12:19;5.50;77.90
37560;DHT22;23398;50.928;7.084;2024-01-16T06:14:45;5.50;77.90
37560;DHT22;23398;50.928;7.084;2024-01-16T06:17:11;5.50;78.20
37560;DHT22;23398;50.928;7.084;2024-01-16T06:19:36;5.50;78.10
37560;DHT22;23398;50.928;7.084;2024-01-16T06:22:02;5.50;77.90
37560;DHT22;23398;50.928;7.084;2024-01-16T06:24:27;5.50;77.70
37560;DHT22;23398;50.928;7.084;2024-01-16T06:26:54;5.40;77.50
37560;DHT22;23398;50.928;7.084;2024-01-16T06:29:19;5.40;77.30
37560;DHT22;23398;50.928;7.084;2024-01-16T06:31:45;5.50;77.20
37560;DHT22;23398;50.928;7.084;2024-01-16T06:34:11;5.60;77.10
37560;DHT22;23398;50.928;7.084;2024-01-16T06:36:36;5.40;76.80
37560;DHT22;23398;50.928;7.084;2024-01-16T06:39:02;5.40;76.60
37560;DHT22;23398;50.928;7.084;2024-01-16T06:41:28;5.50;76.50
37560;DHT22;23398;50.928;7.084;2024-01-16T06:43:54;5.40;76.20
37560;DHT22;23398;50.928;7.084;2024-01-16T06:46:19;5.40;76.10
37560;DHT22;23398;50.928;7.084;2024-01-16T06:48:45;5.40;76.00
37560;DHT22;23398;50.928;7.084;2024-01-16T06:51:10;5.30;75.80
37560;DHT22;23398;50.928;7.084;2024-01-16T06:53:39;5.30;75.80
37560;DHT22;23398;50.928;7.084;2024-01-16T06:56:06;5.30;75.90
37560;DHT22;23398;50.928;7.084;2024-01-16T06:58:32;5.30;76.00
37560;DHT22;23398;50.928;7.084;2024-01-16T07:00:58;5.30;76.10
37560;DHT22;23398;50.928;7.084;2024-01-16T07:03:24;5.30;76.20
37560;DHT22;23398;50.928;7.084;2024-01-16T07:05:49;5.30;76.30
37560;DHT22;23398;50.928;7.084;2024-01-16T07:08:15;5.30;76.20
37560;DHT22;23398;50.928;7.084;2024-01-16T07:10:40;5.30;76.10
37560;DHT22;23398;50.928;7.084;2024-01-16T07:13:06;5.40;76.20
37560;DHT22;23398;50.928;7.084;2024-01-16T07:15:32;5.30;76.00
37560;DHT22;23398;50.928;7.084;2024-01-16T07:17:58;5.30;75.90
37560;DHT22;23398;50.928;7.084;2024-01-16T07:20:23;5.30;76.40
37560;DHT22;23398;50.928;7.084;2024-01-16T07:22:49;5.30;75.40
37560;DHT22;23398;50.928;7.084;2024-01-16T07:25:15;5.30;75.30
37560;DHT22;23398;50.928;7.084;2024-01-16T07:27:40;5.30;75.20
37560;DHT22;23398;50.928;7.084;2024-01-16T07:30:08;5.30;75.20
37560;DHT22;23398;50.928;7.084;2024-01-16T07:32:33;5.30;75.10
37560;DHT22;23398;50.928;7.084;2024-01-16T07:34:59;5.30;75.10
37560;DHT22;23398;50.928;7.084;2024-01-16T07:37:25;5.30;75.10
37560;DHT22;23398;50.928;7.084;2024-01-16T07:39:50;5.30;75.10
37560;DHT22;23398;50.928;7.084;2024-01-16T07:42:16;5.30;75.00
37560;DHT22;23398;50.928;7.084;2024-01-16T07:44:41;5.30;75.00
37560;DHT22;23398;50.928;7.084;2024-01-16T07:47:07;5.30;74.90
37560;DHT22;23398;50.928;7.084;2024-01-16T07:49:34;5.40;74.80
37560;DHT22;23398;50.928;7.084;2024-01-16T07:51:59;5.40;74.70
37560;DHT22;23398;50.928;7.084;2024-01-16T07:54:25;5.40;74.50
37560;DHT22;23398;50.928;7.084;2024-01-16T07:56:51;5.40;74.40
37560;DHT22;23398;50.928;7.084;2024-01-16T07:59:17;5.40;74.30
37560;DHT22;23398;50.928;7.084;2024-01-16T08:01:43;5.40;74.10
37560;DHT22;23398;50.928;7.084;2024-01-16T08:04:08;5.40;73.90
37560;DHT22;23398;50.928;7.084;2024-01-16T08:06:34;5.40;73.80
37560;DHT22;23398;50.928;7.084;2024-01-16T08:08:59;5.40;73.80
37560;DHT22;23398;50.928;7.084;2024-01-16T08:11:25;5.50;73.70
37560;DHT22;23398;50.928;7.084;2024-01-16T08:13:51;5.50;73.60
37560;DHT22;23398;50.928;7.084;2024-01-16T08:16:16;5.50;73.70
37560;DHT22;23398;50.928;7.084;2024-01-16T08:18:42;5.50;73.60
37560;DHT22;23398;50.928;7.084;2024-01-16T08:21:08;5.50;73.50
37560;DHT22;23398;50.928;7.084;2024-01-16T08:23:34;5.60;73.50
37560;DHT22;23398;50.928;7.084;2024-01-16T08:26:00;5.60;73.40
37560;DHT22;23398;50.928;7.084;2024-01-16T08:28:26;5.60;73.50
37560;DHT22;23398;50.928;7.084;2024-01-16T08:30:52;5.70;73.60
37560;DHT22;23398;50.928;7.084;2024-01-16T08:33:17;5.70;73.60
37560;DHT22;23398;50.928;7.084;2024-01-16T08:35:43;5.80;73.70
37560;DHT22;23398;50.928;7.084;2024-01-16T08:38:09;5.80;73.50
37560;DHT22;23398;50.928;7.084;2024-01-16T08:40:35;5.90;73.50
37560;DHT22;23398;50.928;7.084;2024-01-16T08:43:00;6.00;73.70
37560;DHT22;23398;50.928;7.084;2024-01-16T08:45:26;6.10;73.60
37560;DHT22;23398;50.928;7.084;2024-01-16T08:47:52;6.20;73.30
37560;DHT22;23398;50.928;7.084;2024-01-16T08:50:18;6.20;72.80
37560;DHT22;23398;50.928;7.084;2024-01-16T08:52:43;6.30;72.40
37560;DHT22;23398;50.928;7.084;2024-01-16T08:55:09;6.40;72.20
37560;DHT22;23398;50.928;7.084;2024-01-16T08:57:38;6.40;72.00
37560;DHT22;23398;50.928;7.084;2024-01-16T09:00:07;6.50;71.70
37560;DHT22;23398;50.928;7.084;2024-01-16T09:02:36;6.60;71.10
37560;DHT22;23398;50.928;7.084;2024-01-16T09:05:01;6.60;70.90
37560;DHT22;23398;50.928;7.084;2024-01-16T09:07:27;6.70;70.50
37560;DHT22;23398;50.928;7.084;2024-01-16T09:09:53;6.70;70.20
37560;DHT22;23398;50.928;7.084;2024-01-16T09:12:19;6.70;70.00
37560;DHT22;23398;50.928;7.084;2024-01-16T09:14:45;6.80;69.90
37560;DHT22;23398;50.928;7.084;2024-01-16T09:17:10;6.80;69.70
37560;DHT22;23398;50.928;7.084;2024-01-16T09:19:36;6.80;69.70
37560;DHT22;23398;50.928;7.084;2024-01-16T09:22:01;6.90;70.30
37560;DHT22;23398;50.928;7.084;2024-01-16T09:24:28;7.00;71.20
37560;DHT22;23398;50.928;7.084;2024-01-16T09:26:54;7.20;72.00
37560;DHT22;23398;50.928;7.084;2024-01-16T09:29:20;7.40;72.30
37560;DHT22;23398;50.928;7.084;2024-01-16T09:31:46;7.60;72.20
37560;DHT22;23398;50.928;7.084;2024-01-16T09:34:13;7.90;71.70
37560;DHT22;23398;50.928;7.084;2024-01-16T09:36:39;8.20;70.50
37560;DHT22;23398;50.928;7.084;2024-01-16T09:39:06;8.40;70.20
37560;DHT22;23398;50.928;7.084;2024-01-16T09:41:39;8.50;68.30
37560;DHT22;23398;50.928;7.084;2024-01-16T09:44:05;8.60;67.40
37560;DHT22;23398;50.928;7.084;2024-01-16T09:46:31;8.70;66.60
37560;DHT22;23398;50.928;7.084;2024-01-16T09:48:59;8.70;66.00
37560;DHT22;23398;50.928;7.084;2024-01-16T09:51:25;8.80;65.70
37560;DHT22;23398;50.928;7.084;2024-01-16T09:53:51;8.70;65.30
37560;DHT22;23398;50.928;7.084;2024-01-16T09:56:21;8.70;65.20
37560;DHT22;23398;50.928;7.084;2024-01-16T09:58:49;8.70;64.70
37560;DHT22;23398;50.928;7.084;2024-01-16T10:01:16;8.70;64.80
37560;DHT22;23398;50.928;7.084;2024-01-16T10:03:44;8.70;64.70
37560;DHT22;23398;50.928;7.084;2024-01-16T10:06:10;8.70;64.60
37560;DHT22;23398;50.928;7.084;2024-01-16T10:08:36;8.70;64.70
37560;DHT22;23398;50.928;7.084;2024-01-16T10:11:02;8.60;64.50
37560;DHT22;23398;50.928;7.084;2024-01-16T10:13:28;8.60;64.40
37560;DHT22;23398;50.928;7.084;2024-01-16T10:15:54;8.60;64.40
37560;DHT22;23398;50.928;7.084;2024-01-16T10:18:25;8.70;64.40
37560;DHT22;23398;50.928;7.084;2024-01-16T10:20:51;8.70;64.10
37560;DHT22;23398;50.928;7.084;2024-01-16T10:23:28;8.70;64.20
37560;DHT22;23398;50.928;7.084;2024-01-16T10:26:11;8.70;64.10
37560;DHT22;23398;50.928;7.084;2024-01-16T10:28:38;8.80;63.90
37560;DHT22;23398;50.928;7.084;2024-01-16T10:31:05;8.80;64.30
37560;DHT22;23398;50.928;7.084;2024-01-16T10:33:31;8.80;64.10
37560;DHT22;23398;50.928;7.084;2024-01-16T10:38:38;8.90;63.80
37560;DHT22;23398;50.928;7.084;2024-01-16T10:41:05;9.00;64.40
37560;DHT22;23398;50.928;7.084;2024-01-16T10:43:31;9.00;64.20
37560;DHT22;23398;50.928;7.084;2024-01-16T10:46:07;9.20;64.20
37560;DHT22;23398;50.928;7.084;2024-01-16T10:48:34;9.30;63.60
37560;DHT22;23398;50.928;7.084;2024-01-16T10:51:00;9.40;63.60
37560;DHT22;23398;50.928;7.084;2024-01-16T10:53:30;9.50;63.30
37560;DHT22;23398;50.928;7.084;2024-01-16T10:56:00;9.60;63.10
37560;DHT22;23398;50.928;7.084;2024-01-16T10:58:26;9.70;62.80
37560;DHT22;23398;50.928;7.084;2024-01-16T11:00:57;9.70;62.30
37560;DHT22;23398;50.928;7.084;2024-01-16T11:03:40;9.80;61.70
37560;DHT22;23398;50.928;7.084;2024-01-16T11:06:07;9.70;60.80
37560;DHT22;23398;50.928;7.084;2024-01-16T11:08:36;9.70;61.10
37560;DHT22;23398;50.928;7.084;2024-01-16T11:11:04;9.60;60.70
37560;DHT22;23398;50.928;7.084;2024-01-16T11:13:32;9.60;60.40
37560;DHT22;23398;50.928;7.084;2024-01-16T11:15:59;9.50;60.20
37560;DHT22;23398;50.928;7.084;2024-01-16T11:18:26;9.40;59.90
37560;DHT22;23398;50.928;7.084;2024-01-16T11:20:53;9.30;59.90
37560;DHT22;23398;50.928;7.084;2024-01-16T11:23:19;9.10;59.90
37560;DHT22;23398;50.928;7.084;2024-01-16T11:25:45;9.00;60.00
37560;DHT22;23398;50.928;7.084;2024-01-16T11:28:14;8.90;60.10
37560;DHT22;23398;50.928;7.084;2024-01-16T11:30:41;8.80;60.20
37560;DHT22;23398;50.928;7.084;2024-01-16T11:35:56;8.60;60.40
37560;DHT22;23398;50.928;7.084;2024-01-16T11:38:23;9.20;61.60
37560;DHT22;23398;50.928;7.084;2024-01-16T11:40:49;8.50;60.90
37560;DHT22;23398;50.928;7.084;2024-01-16T11:46:03;8.40;61.00
37560;DHT22;23398;50.928;7.084;2024-01-16T11:48:29;8.50;61.70
37560;DHT22;23398;50.928;7.084;2024-01-16T11:50:54;8.50;61.20
37560;DHT22;23398;50.928;7.084;2024-01-16T11:53:33;8.50;61.00
37560;DHT22;23398;50.928;7.084;2024-01-16T12:01:44;8.40;60.20
37560;DHT22;23398;50.928;7.084;2024-01-16T12:04:10;8.40;60.50
37560;DHT22;23398;50.928;7.084;2024-01-16T12:06:36;8.30;60.30
37560;DHT22;23398;50.928;7.084;2024-01-16T12:09:17;8.30;59.90
37560;DHT22;23398;50.928;7.084;2024-01-16T12:11:57;8.20;59.60
37560;DHT22;23398;50.928;7.084;2024-01-16T12:14:23;8.10;59.80
37560;DHT22;23398;50.928;7.084;2024-01-16T12:16:49;8.00;60.10
37560;DHT22;23398;50.928;7.084;2024-01-16T12:19:15;7.90;60.10
37560;DHT22;23398;50.928;7.084;2024-01-16T12:21:42;7.90;60.20
37560;DHT22;23398;50.928;7.084;2024-01-16T12:24:10;7.80;60.10
37560;DHT22;23398;50.928;7.084;2024-01-16T12:26:36;7.70;60.80
37560;DHT22;23398;50.928;7.084;2024-01-16T12:29:02;7.70;60.00
37560;DHT22;23398;50.928;7.084;2024-01-16T12:31:28;7.70;60.10
37560;DHT22;23398;50.928;7.084;2024-01-16T12:34:07;7.70;60.30
37560;DHT22;23398;50.928;7.084;2024-01-16T12:36:33;7.60;59.90
37560;DHT22;23398;50.928;7.084;2024-01-16T12:38:59;7.60;60.20
37560;DHT22;23398;50.928;7.084;2024-01-16T12:41:26;7.60;60.10
37560;DHT22;23398;50.928;7.084;2024-01-16T12:43:53;7.60;60.20
37560;DHT22;23398;50.928;7.084;2024-01-16T12:46:19;7.60;60.40
37560;DHT22;23398;50.928;7.084;2024-01-16T12:48:45;7.60;60.30
37560;DHT22;23398;50.928;7.084;2024-01-16T12:51:20;7.60;60.40
37560;DHT22;23398;50.928;7.084;2024-01-16T12:53:47;7.60;60.00
37560;DHT22;23398;50.928;7.084;2024-01-16T12:56:12;7.60;60.20
37560;DHT22;23398;50.928;7.084;2024-01-16T12:58:38;7.60;60.00
37560;DHT22;23398;50.928;7.084;2024-01-16T13:01:22;7.60;60.00
37560;DHT22;23398;50.928;7.084;2024-01-16T13:03:49;7.50;59.60
37560;DHT22;23398;50.928;7.084;2024-01-16T13:06:20;7.50;59.90
37560;DHT22;23398;50.928;7.084;2024-01-16T13:08:50;7.50;59.70
37560;DHT22;23398;50.928;7.084;2024-01-16T13:11:16;7.50;59.60
37560;DHT22;23398;50.928;7.084;2024-01-16T13:13:48;7.50;59.60
37560;DHT22;23398;50.928;7.084;2024-01-16T13:16:16;7.40;59.50
37560;DHT22;23398;50.928;7.084;2024-01-16T13:18:42;7.40;59.60
37560;DHT22;23398;50.928;7.084;2024-01-16T13:21:08;7.40;59.80
37560;DHT22;23398;50.928;7.084;2024-01-16T13:23:35;7.30;59.80
37560;DHT22;23398;50.928;7.084;2024-01-16T13:26:00;7.30;59.80
37560;DHT22;23398;50.928;7.084;2024-01-16T13:28:29;7.30;59.90
37560;DHT22;23398;50.928;7.084;2024-01-16T13:30:55;7.30;60.20
37560;DHT22;23398;50.928;7.084;2024-01-16T13:33:25;7.30;60.20
37560;DHT22;23398;50.928;7.084;2024-01-16T13:35:53;7.40;60.50
37560;DHT22;23398;50.928;7.084;2024-01-16T13:38:20;7.40;60.70
37560;DHT22;23398;50.928;7.084;2024-01-16T13:40:46;7.40;60.30
37560;DHT22;23398;50.928;7.084;2024-01-16T13:43:12;7.50;60.20
37560;DHT22;23398;50.928;7.084;2024-01-16T13:45:38;7.50;59.70
37560;DHT22;23398;50.928;7.084;2024-01-16T13:48:05;7.50;59.70
37560;DHT22;23398;50.928;7.084;2024-01-16T13:50:35;7.50;59.90
37560;DHT22;23398;50.928;7.084;2024-01-16T13:53:01;7.50;59.80
37560;DHT22;23398;50.928;7.084;2024-01-16T13:55:29;7.50;59.80
37560;DHT22;23398;50.928;7.084;2024-01-16T13:57:57;7.50;59.60
37560;DHT22;23398;50.928;7.084;2024-01-16T14:00:24;7.50;59.60
37560;DHT22;23398;50.928;7.084;2024-01-16T14:02:49;7.50;59.50
37560;DHT22;23398;50.928;7.084;2024-01-16T14:05:17;7.50;59.40
37560;DHT22;23398;50.928;7.084;2024-01-16T14:07:48;7.50;59.30
37560;DHT22;23398;50.928;7.084;2024-01-16T14:10:16;7.50;59.10
37560;DHT22;23398;50.928;7.084;2024-01-16T14:12:42;7.50;59.10
37560;DHT22;23398;50.928;7.084;2024-01-16T14:15:09;7.50;59.00
37560;DHT22;23398;50.928;7.084;2024-01-16T14:17:42;7.50;58.80
37560;DHT22;23398;50.928;7.084;2024-01-16T14:20:10;7.40;58.60
37560;DHT22;23398;50.928;7.084;2024-01-16T14:22:36;7.40;58.60
37560;DHT22;23398;50.928;7.084;2024-01-16T14:25:12;7.30;58.50
37560;DHT22;23398;50.928;7.084;2024-01-16T14:27:41;7.20;58.30
37560;DHT22;23398;50.928;7.084;2024-01-16T14:30:09;7.10;58.30
37560;DHT22;23398;50.928;7.084;2024-01-16T14:32:36;7.00;58.20
37560;DHT22;23398;50.928;7.084;2024-01-16T14:35:04;6.90;58.10
37560;DHT22;23398;50.928;7.084;2024-01-16T14:37:30;6.80;58.20
37560;DHT22;23398;50.928;7.084;2024-01-16T14:39:58;6.70;58.30
37560;DHT22;23398;50.928;7.084;2024-01-16T14:42:27;6.60;58.30
37560;DHT22;23398;50.928;7.084;2024-01-16T14:44:52;6.50;58.30
37560;DHT22;23398;50.928;7.084;2024-01-16T14:47:18;6.40;58.40
37560;DHT22;23398;50.928;7.084;2024-01-16T14:49:43;6.40;58.40
37560;DHT22;23398;50.928;7.084;2024-01-16T14:52:09;6.20;58.40
37560;DHT22;23398;50.928;7.084;2024-01-16T14:54:34;6.20;58.40
37560;DHT22;23398;50.928;7.084;2024-01-16T14:57:00;6.10;58.40
37560;DHT22;23398;50.928;7.084;2024-01-16T14:59:25;6.10;58.40
37560;DHT22;23398;50.928;7.084;2024-01-16T15:01:51;6.00;58.40
37560;DHT22;23398;50.928;7.084;2024-01-16T15:04:21;5.90;58.30
37560;DHT22;23398;50.928;7.084;2024-01-16T15:06:47;5.90;58.40
37560;DHT22;23398;50.928;7.084;2024-01-16T15:09:12;5.80;58.30
37560;DHT22;23398;50.928;7.084;2024-01-16T15:11:38;5.70;58.30
37560;DHT22;23398;50.928;7.084;2024-01-16T15:14:04;5.70;58.20
37560;DHT22;23398;50.928;7.084;2024-01-16T15:16:30;5.70;58.10
37560;DHT22;23398;50.928;7.084;2024-01-16T15:18:56;5.60;58.00
37560;DHT22;23398;50.928;7.084;2024-01-16T15:21:22;5.60;58.10
37560;DHT22;23398;50.928;7.084;2024-01-16T15:23:48;5.50;58.10
37560;DHT22;23398;50.928;7.084;2024-01-16T15:26:13;5.50;58.10
37560;DHT22;23398;50.928;7.084;2024-01-16T15:28:44;5.40;58.10
37560;DHT22;23398;50.928;7.084;2024-01-16T15:31:10;5.30;58.00
37560;DHT22;23398;50.928;7.084;2024-01-16T15:33:35;5.30;58.00
37560;DHT22;23398;50.928;7.084;2024-01-16T15:36:02;5.20;58.00
37560;DHT22;23398;50.928;7.084;2024-01-16T15:38:28;5.20;58.00
37560;DHT22;23398;50.928;7.084;2024-01-16T15:40:53;5.10;58.00
37560;DHT22;23398;50.928;7.084;2024-01-16T15:43:19;5.00;58.00
37560;DHT22;23398;50.928;7.084;2024-01-16T15:45:44;5.00;58.10
37560;DHT22;23398;50.928;7.084;2024-01-16T15:48:10;4.90;58.20
37560;DHT22;23398;50.928;7.084;2024-01-16T15:50:35;4.80;58.20
37560;DHT22;23398;50.928;7.084;2024-01-16T15:53:01;4.70;58.30
37560;DHT22;23398;50.928;7.084;2024-01-16T15:55:27;4.60;58.20